Terminal Aerodrome Forecast
Issued by NWS

Home | Current Version | Previous Version | Text Only | Print | Product List | Glossary On
Versions: 1 2 3 4 5 6 7 8 9 10 11 12
000
FTUS45 KBOI 291720
TAFMYL
TAF
KMYL 291720Z 2918/3018 VRB06KT P6SM FEW250
     FM292000 19014G22KT P6SM FEW120 SCT250
     FM300200 VRB06KT P6SM BKN120 BKN200=

USA.gov is the U.S. government's official web portal to all federal, state and local government web resources and services.